createdAt,value
2022-09-24T00:01:39.046Z,7.00
2022-09-24T00:04:11.678Z,6.90
2022-09-24T00:06:44.524Z,6.80
2022-09-24T00:09:15.137Z,6.70
2022-09-24T00:11:46.019Z,6.40
2022-09-24T00:14:19.200Z,6.30
2022-09-24T00:16:50.076Z,6.23
2022-09-24T00:19:19.710Z,6.27
2022-09-24T00:21:49.342Z,6.33
2022-09-24T00:24:32.773Z,6.13
2022-09-24T00:27:03.168Z,6.93
2022-09-24T00:29:36.241Z,6.87
2022-09-24T00:32:06.522Z,8.27
2022-09-24T00:34:36.401Z,7.13
2022-09-24T00:37:06.110Z,6.77
2022-09-24T00:39:35.764Z,6.90
2022-09-24T00:42:05.416Z,7.50
2022-09-24T00:44:54.814Z,7.20
2022-09-24T00:47:35.252Z,6.80
2022-09-24T00:50:15.678Z,7.00
2022-09-24T00:52:49.698Z,6.73
2022-09-24T00:55:23.728Z,7.70
2022-09-24T00:57:57.739Z,6.23
2022-09-24T01:00:30.357Z,7.47
2022-09-24T01:03:05.095Z,6.77
2022-09-24T01:05:35.319Z,7.43
2022-09-24T01:08:05.415Z,7.97
2022-09-24T01:10:54.042Z,7.00
2022-09-24T01:13:36.578Z,7.30
2022-09-24T01:16:19.645Z,7.33
2022-09-24T01:18:58.132Z,7.23
2022-09-24T01:21:35.112Z,7.73
2022-09-24T01:24:26.549Z,8.50
2022-09-24T01:27:08.742Z,7.67
2022-09-24T01:29:52.431Z,8.57
2022-09-24T01:32:32.192Z,8.37
2022-09-24T01:35:06.756Z,8.13
2022-09-24T01:37:39.068Z,9.03
2022-09-24T01:40:12.154Z,7.87
2022-09-24T01:42:45.399Z,8.03
2022-09-24T01:45:19.863Z,9.00
2022-09-24T01:47:50.204Z,8.50
2022-09-24T01:50:22.821Z,7.80
2022-09-24T01:52:58.687Z,8.33
2022-09-24T01:55:31.336Z,8.40
2022-09-24T01:58:04.945Z,7.43
2022-09-24T02:00:40.857Z,7.40
2022-09-24T02:03:14.029Z,7.93
2022-09-24T02:05:49.984Z,7.77
2022-09-24T02:08:22.768Z,8.23
2022-09-24T02:10:58.205Z,8.63
2022-09-24T02:13:32.314Z,9.50
2022-09-24T02:16:06.702Z,9.30
2022-09-24T02:18:41.800Z,9.47
2022-09-24T02:21:14.051Z,9.87
2022-09-24T02:23:50.683Z,9.57
2022-09-24T02:26:20.427Z,9.00
2022-09-24T02:28:50.292Z,9.67
2022-09-24T02:31:27.520Z,10.10
2022-09-24T02:34:11.017Z,10.33
2022-09-24T02:36:41.961Z,9.50
2022-09-24T02:39:11.590Z,9.67
2022-09-24T02:41:42.680Z,9.90
2022-09-24T02:44:12.748Z,10.40
2022-09-24T02:46:45.056Z,9.97
2022-09-24T02:49:15.701Z,10.60
2022-09-24T02:51:46.601Z,10.83
2022-09-24T02:54:16.282Z,11.07
2022-09-24T02:56:45.948Z,10.30
2022-09-24T02:59:15.568Z,10.50
2022-09-24T03:01:48.098Z,9.70
2022-09-24T03:04:18.230Z,10.50
2022-09-24T03:06:47.921Z,10.70
2022-09-24T03:09:17.636Z,11.03
2022-09-24T03:11:47.422Z,10.77
2022-09-24T03:14:17.062Z,11.20
2022-09-24T03:16:49.285Z,10.33
2022-09-24T03:19:18.898Z,10.40
2022-09-24T03:21:48.549Z,10.30
2022-09-24T03:24:18.202Z,9.70
2022-09-24T03:26:47.982Z,10.40
2022-09-24T03:29:37.636Z,9.63
2022-09-24T03:32:07.313Z,10.33
2022-09-24T03:34:36.943Z,9.43
2022-09-24T03:37:07.111Z,10.53
2022-09-24T03:39:36.746Z,10.40
2022-09-24T03:42:06.609Z,11.00
2022-09-24T03:44:36.257Z,10.90
2022-09-24T03:47:05.899Z,10.80
2022-09-24T03:49:38.116Z,10.80
2022-09-24T03:52:07.761Z,11.10
2022-09-24T03:54:37.373Z,10.33
2022-09-24T03:57:07.074Z,11.40
2022-09-24T03:59:36.721Z,11.63
2022-09-24T04:02:06.388Z,11.60
2022-09-24T04:04:38.670Z,11.43
2022-09-24T04:07:08.914Z,11.40
2022-09-24T04:09:38.577Z,10.73
2022-09-24T04:12:08.307Z,11.30
2022-09-24T04:14:37.948Z,11.57
2022-09-24T04:17:07.690Z,12.07
2022-09-24T04:19:40.518Z,11.10
2022-09-24T04:22:10.231Z,11.47
2022-09-24T04:24:40.573Z,11.23
2022-09-24T04:27:10.188Z,12.03
2022-09-24T04:29:39.822Z,12.37
2022-09-24T04:32:09.481Z,11.57
2022-09-24T04:34:41.694Z,12.00
2022-09-24T04:37:11.945Z,12.40
2022-09-24T04:39:41.924Z,12.53
2022-09-24T04:42:11.569Z,11.13
2022-09-24T04:44:41.183Z,14.37
2022-09-24T04:47:11.564Z,13.80
2022-09-24T04:49:46.452Z,13.70
2022-09-24T04:52:17.566Z,13.33
2022-09-24T04:54:48.225Z,14.80
2022-09-24T04:57:17.837Z,14.13
2022-09-24T04:59:47.725Z,14.27
2022-09-24T05:02:18.696Z,14.80
2022-09-24T05:04:51.063Z,13.37
2022-09-24T05:07:20.766Z,13.90
2022-09-24T05:09:50.444Z,14.80
2022-09-24T05:12:20.609Z,14.43
2022-09-24T05:14:50.405Z,14.00
2022-09-24T05:17:20.495Z,14.37
2022-09-24T05:19:52.735Z,15.53
2022-09-24T05:22:22.383Z,14.93
2022-09-24T05:24:52.040Z,15.47
2022-09-24T05:27:21.795Z,15.50
2022-09-24T05:29:51.781Z,13.90
2022-09-24T05:32:22.775Z,15.97
2022-09-24T05:34:55.200Z,15.30
2022-09-24T05:37:24.872Z,14.97
2022-09-24T05:39:54.904Z,15.67
2022-09-24T05:42:24.639Z,16.00
2022-09-24T05:44:54.329Z,15.57
2022-09-24T05:47:24.001Z,16.27
2022-09-24T05:49:56.339Z,16.70
2022-09-24T05:52:26.089Z,14.20
2022-09-24T05:54:56.505Z,16.00
2022-09-24T05:57:26.158Z,15.70
2022-09-24T05:59:56.114Z,16.10
2022-09-24T06:02:25.941Z,15.70
2022-09-24T06:04:58.238Z,16.77
2022-09-24T06:07:27.961Z,19.00
2022-09-24T06:09:59.252Z,20.30
2022-09-24T06:12:29.016Z,19.47
2022-09-24T06:14:58.691Z,20.73
2022-09-24T06:17:28.796Z,19.70
2022-09-24T06:20:01.074Z,20.10
2022-09-24T06:22:30.921Z,19.60
2022-09-24T06:25:00.615Z,21.27
2022-09-24T06:27:30.317Z,20.80
2022-09-24T06:30:00.106Z,19.90
2022-09-24T06:32:29.894Z,19.07
2022-09-24T06:35:02.157Z,19.93
2022-09-24T06:37:31.849Z,18.23
2022-09-24T06:40:01.551Z,19.07
2022-09-24T06:42:31.282Z,18.63
2022-09-24T06:45:00.945Z,18.77
2022-09-24T06:47:33.865Z,19.23
2022-09-24T06:50:06.762Z,19.40
2022-09-24T06:52:37.770Z,18.47
2022-09-24T06:55:08.600Z,19.60
2022-09-24T06:57:38.329Z,19.10
2022-09-24T07:00:09.474Z,19.17
2022-09-24T07:02:39.390Z,19.37
2022-09-24T07:05:12.699Z,20.73
2022-09-24T07:07:42.854Z,20.43
2022-09-24T07:10:13.437Z,21.80
2022-09-24T07:12:44.839Z,22.63
2022-09-24T07:15:14.606Z,22.20
2022-09-24T07:17:45.368Z,21.20
2022-09-24T07:20:17.671Z,22.30
2022-09-24T07:22:47.421Z,21.73
2022-09-24T07:25:17.228Z,21.47
2022-09-24T07:27:46.948Z,21.53
2022-09-24T07:30:17.239Z,21.63
2022-09-24T07:32:47.020Z,22.00
2022-09-24T07:35:21.135Z,22.43
2022-09-24T07:37:50.835Z,22.50
2022-09-24T07:40:22.177Z,22.37
2022-09-24T07:42:51.970Z,21.73
2022-09-24T07:45:21.662Z,22.43
2022-09-24T07:47:51.396Z,24.60
2022-09-24T07:50:23.899Z,22.90
2022-09-24T07:52:53.701Z,21.40
2022-09-24T07:55:23.476Z,23.40
2022-09-24T07:57:55.168Z,22.83
2022-09-24T08:00:26.805Z,24.37
2022-09-24T08:02:56.597Z,22.70
2022-09-24T08:05:28.998Z,23.53
2022-09-24T08:07:59.900Z,22.97
2022-09-24T08:10:30.724Z,23.33
2022-09-24T08:13:04.257Z,23.27
2022-09-24T08:15:33.957Z,23.93
2022-09-24T08:18:07.715Z,22.97
2022-09-24T08:20:40.850Z,24.00
2022-09-24T08:23:12.775Z,26.47
2022-09-24T08:25:42.499Z,25.73
2022-09-24T08:28:13.430Z,23.53
2022-09-24T08:30:43.268Z,23.80
2022-09-24T08:33:13.483Z,25.70
2022-09-24T08:35:45.872Z,24.40
2022-09-24T08:38:15.648Z,23.60
2022-09-24T08:40:49.444Z,23.87
2022-09-24T08:43:35.554Z,24.20
2022-09-24T08:46:27.319Z,24.57
2022-09-24T08:48:58.337Z,21.37
2022-09-24T08:51:38.100Z,23.20
2022-09-24T08:54:12.455Z,20.30
2022-09-24T08:56:46.841Z,21.50
2022-09-24T08:59:27.207Z,24.40
2022-09-24T09:02:13.513Z,21.80
2022-09-24T09:04:55.419Z,22.98
2022-09-24T09:07:33.851Z,22.40
2022-09-24T09:10:06.211Z,21.10
2022-09-24T09:12:40.952Z,21.67
2022-09-24T09:15:16.360Z,21.03
2022-09-24T09:17:50.768Z,22.63
2022-09-24T09:20:23.849Z,22.97
2022-09-24T09:22:56.185Z,20.97
2022-09-24T09:25:28.582Z,23.40
2022-09-24T09:28:03.134Z,22.70
2022-09-24T09:30:43.802Z,23.67
2022-09-24T09:33:31.067Z,23.23
2022-09-24T09:36:18.304Z,21.63
2022-09-24T09:38:57.365Z,22.37
2022-09-24T09:41:36.533Z,22.73
2022-09-24T09:44:16.064Z,22.03
2022-09-24T09:46:54.016Z,21.53
2022-09-24T09:49:25.546Z,21.40
2022-09-24T09:51:59.814Z,20.40
2022-09-24T09:54:42.108Z,20.30
2022-09-24T09:57:18.228Z,20.77
2022-09-24T09:59:50.003Z,18.00
2022-09-24T10:02:30.342Z,16.03
2022-09-24T10:05:02.282Z,17.10
2022-09-24T10:07:32.437Z,16.60
2022-09-24T10:10:19.249Z,15.53
2022-09-24T10:12:49.133Z,15.60
2022-09-24T10:15:20.997Z,14.17
2022-09-24T10:17:53.371Z,15.83
2022-09-24T10:20:27.785Z,14.10
2022-09-24T10:23:00.722Z,13.40
2022-09-24T10:25:36.305Z,14.73
2022-09-24T10:28:26.367Z,14.53
2022-09-24T10:30:59.580Z,14.80
2022-09-24T10:33:30.193Z,15.50
2022-09-24T10:36:08.195Z,13.37
2022-09-24T10:38:38.001Z,15.90
2022-09-24T10:41:19.901Z,15.27
2022-09-24T10:43:56.184Z,15.67
2022-09-24T10:47:00.131Z,14.87
2022-09-24T10:49:43.550Z,14.40
2022-09-24T10:52:28.189Z,14.80
2022-09-24T10:55:08.291Z,15.00
2022-09-24T10:57:49.518Z,16.03
2022-09-24T11:00:22.777Z,15.60
2022-09-24T11:03:08.308Z,16.07
2022-09-24T11:05:45.058Z,17.13
2022-09-24T11:08:26.340Z,16.10
2022-09-24T11:11:10.231Z,18.00
2022-09-24T11:13:51.747Z,16.20
2022-09-24T11:16:47.486Z,17.03
2022-09-24T11:19:30.298Z,16.10
2022-09-24T11:22:12.299Z,17.07
2022-09-24T11:25:05.674Z,16.40
2022-09-24T11:27:48.041Z,16.63
2022-09-24T11:30:22.629Z,15.93
2022-09-24T11:33:09.562Z,16.70
2022-09-24T11:35:59.652Z,15.90
2022-09-24T11:38:42.668Z,17.30
2022-09-24T11:41:25.684Z,16.40
2022-09-24T11:44:18.745Z,17.30
2022-09-24T11:47:06.169Z,18.10
2022-09-24T11:49:49.848Z,17.10
2022-09-24T11:52:31.791Z,15.70
2022-09-24T11:55:07.633Z,17.27
2022-09-24T11:57:42.235Z,16.30
2022-09-24T12:00:18.126Z,17.70
2022-09-24T12:02:53.524Z,17.60
2022-09-24T12:05:32.153Z,17.73
2022-09-24T12:08:07.880Z,18.20
2022-09-24T12:10:46.175Z,17.10
2022-09-24T12:13:21.396Z,17.77
2022-09-24T12:15:56.414Z,17.47
2022-09-24T12:18:32.311Z,17.27
2022-09-24T12:21:07.265Z,19.43
2022-09-24T12:23:42.755Z,17.73
2022-09-24T12:26:16.393Z,19.70
2022-09-24T12:29:08.262Z,18.80
2022-09-24T12:31:59.026Z,18.37
2022-09-24T12:34:43.398Z,18.80
2022-09-24T12:37:18.274Z,19.03
2022-09-24T12:39:53.098Z,17.20
2022-09-24T12:42:26.047Z,19.13
2022-09-24T12:45:00.879Z,19.13
2022-09-24T12:47:33.875Z,17.97
2022-09-24T12:50:09.245Z,18.53
2022-09-24T12:52:43.009Z,18.50
2022-09-24T12:55:23.718Z,18.17
2022-09-24T12:57:56.955Z,18.10
2022-09-24T13:00:41.253Z,17.00
2022-09-24T13:03:33.876Z,18.07
2022-09-24T13:06:21.365Z,17.90
2022-09-24T13:08:51.179Z,18.70
2022-09-24T13:11:37.478Z,20.03
2022-09-24T13:14:21.728Z,19.60
2022-09-24T13:16:54.226Z,19.07
2022-09-24T13:19:29.194Z,20.27
2022-09-24T13:22:03.025Z,20.23
2022-09-24T13:24:48.426Z,18.40
2022-09-24T13:27:27.371Z,18.97
2022-09-24T13:30:08.518Z,18.93
2022-09-24T13:32:43.775Z,20.73
2022-09-24T13:35:23.711Z,19.17
2022-09-24T13:38:04.023Z,18.93
2022-09-24T13:40:40.004Z,20.40
2022-09-24T13:43:17.437Z,19.00
2022-09-24T13:45:48.190Z,19.60
2022-09-24T13:48:28.240Z,18.83
2022-09-24T13:50:59.048Z,19.57
2022-09-24T13:53:36.525Z,18.97
2022-09-24T13:56:09.436Z,19.60
2022-09-24T13:58:41.755Z,20.90
2022-09-24T14:01:17.151Z,20.67
2022-09-24T14:03:56.175Z,21.27
2022-09-24T14:06:37.682Z,20.47
2022-09-24T14:09:30.149Z,21.90
2022-09-24T14:12:02.882Z,21.80
2022-09-24T14:14:38.039Z,22.50
2022-09-24T14:17:12.333Z,22.50
2022-09-24T14:19:46.274Z,22.80
2022-09-24T14:22:23.592Z,22.27
2022-09-24T14:25:03.192Z,22.07
2022-09-24T14:27:41.944Z,21.73
2022-09-24T14:30:22.300Z,22.37
2022-09-24T14:32:58.572Z,21.90
2022-09-24T14:35:34.171Z,21.13
2022-09-24T14:38:08.971Z,23.50
2022-09-24T14:40:47.738Z,23.00
2022-09-24T14:43:21.638Z,23.77
2022-09-24T14:45:53.798Z,23.63
2022-09-24T14:48:31.184Z,24.10
2022-09-24T14:51:01.576Z,24.03
2022-09-24T14:53:36.108Z,25.80
2022-09-24T14:56:23.221Z,25.03
2022-09-24T14:58:53.377Z,26.70
2022-09-24T15:01:26.873Z,26.33
2022-09-24T15:04:00.416Z,26.50
2022-09-24T15:06:32.239Z,27.00
2022-09-24T15:09:03.851Z,28.20
2022-09-24T15:11:43.886Z,28.07
2022-09-24T15:14:27.310Z,25.93
2022-09-24T15:16:58.273Z,27.10
2022-09-24T15:19:30.965Z,27.20
2022-09-24T15:22:02.785Z,28.60
2022-09-24T15:24:32.654Z,29.90
2022-09-24T15:27:07.567Z,26.93
2022-09-24T15:29:37.328Z,25.67
2022-09-24T15:32:17.728Z,26.40
2022-09-24T15:34:48.430Z,27.60
2022-09-24T15:37:20.906Z,27.60
2022-09-24T15:39:51.401Z,28.77
2022-09-24T15:42:26.189Z,27.17
2022-09-24T15:44:56.600Z,27.53
2022-09-24T15:47:26.331Z,28.47
2022-09-24T15:49:57.072Z,27.07
2022-09-24T15:52:29.221Z,27.00
2022-09-24T15:55:00.854Z,28.00
2022-09-24T15:57:33.184Z,26.80
2022-09-24T16:00:02.864Z,26.57
2022-09-24T16:02:36.325Z,27.17
2022-09-24T16:05:06.536Z,26.70
2022-09-24T16:07:36.299Z,26.83
2022-09-24T16:10:06.798Z,26.00
2022-09-24T16:12:39.378Z,28.10
2022-09-24T16:15:10.707Z,27.10
2022-09-24T16:17:41.099Z,26.23
2022-09-24T16:20:11.629Z,30.03
2022-09-24T16:22:41.342Z,29.17
2022-09-24T16:25:11.318Z,29.80
2022-09-24T16:27:44.050Z,29.10
2022-09-24T16:30:14.209Z,29.60
2022-09-24T16:32:43.954Z,29.20
2022-09-24T16:35:13.818Z,30.30
2022-09-24T16:37:44.122Z,31.30
2022-09-24T16:40:16.046Z,29.70
2022-09-24T16:42:48.317Z,27.43
2022-09-24T16:45:18.316Z,26.70
2022-09-24T16:47:48.978Z,25.47
2022-09-24T16:50:23.667Z,27.57
2022-09-24T16:52:55.347Z,28.40
2022-09-24T16:55:26.829Z,29.37
2022-09-24T16:58:01.121Z,27.60
2022-09-24T17:00:30.836Z,28.40
2022-09-24T17:03:00.763Z,29.20
2022-09-24T17:05:33.942Z,28.30
2022-09-24T17:08:04.071Z,26.43
2022-09-24T17:10:31.485Z,27.27
2022-09-24T17:13:03.826Z,26.90
2022-09-24T17:15:34.357Z,27.27
2022-09-24T17:18:05.270Z,28.00
2022-09-24T17:20:35.905Z,26.57
2022-09-24T17:23:08.153Z,26.87
2022-09-24T17:25:38.781Z,27.13
2022-09-24T17:28:12.378Z,27.67
2022-09-24T17:30:46.291Z,26.77
2022-09-24T17:33:41.819Z,27.13
2022-09-24T17:36:11.114Z,29.27
2022-09-24T17:38:42.657Z,28.10
2022-09-24T17:41:16.162Z,27.97
2022-09-24T17:43:49.306Z,28.53
2022-09-24T17:46:25.150Z,26.40
2022-09-24T17:48:58.871Z,28.30
2022-09-24T17:51:32.655Z,28.90
2022-09-24T17:54:04.052Z,28.10
2022-09-24T17:56:38.810Z,28.20
2022-09-24T17:59:13.402Z,27.70
2022-09-24T18:01:45.632Z,29.07
2022-09-24T18:04:17.379Z,29.10
2022-09-24T18:06:48.473Z,28.80
2022-09-24T18:09:20.053Z,27.60
2022-09-24T18:11:51.654Z,27.80
2022-09-24T18:14:26.423Z,29.33
2022-09-24T18:16:56.486Z,28.50
2022-09-24T18:19:27.438Z,30.00
2022-09-24T18:21:59.276Z,30.03
2022-09-24T18:24:29.141Z,31.83
2022-09-24T18:26:59.019Z,31.38
2022-09-24T18:29:32.901Z,32.03
2022-09-24T18:32:02.647Z,32.27
2022-09-24T18:34:32.537Z,34.33
2022-09-24T18:37:02.229Z,32.90
2022-09-24T18:39:31.950Z,33.03
2022-09-24T18:42:01.649Z,35.10
2022-09-24T18:44:34.112Z,34.40
2022-09-24T18:47:03.745Z,35.93
2022-09-24T18:49:33.513Z,35.67
2022-09-24T18:52:03.575Z,35.77
2022-09-24T18:54:33.462Z,34.77
2022-09-24T18:57:03.196Z,36.07
2022-09-24T18:59:44.377Z,36.53
2022-09-24T19:02:15.091Z,35.50
2022-09-24T19:04:45.948Z,33.77
2022-09-24T19:07:16.577Z,34.80
2022-09-24T19:09:46.752Z,36.17
2022-09-24T19:12:16.408Z,37.23
2022-09-24T19:14:49.783Z,33.83
2022-09-24T19:17:19.591Z,31.40
2022-09-24T19:19:52.467Z,28.00
2022-09-24T19:22:22.366Z,22.03
2022-09-24T19:24:53.037Z,21.40
2022-09-24T19:27:22.633Z,19.63
2022-09-24T19:29:55.871Z,18.10
2022-09-24T19:32:26.624Z,17.90
2022-09-24T19:34:56.740Z,16.67
2022-09-24T19:37:26.449Z,16.07
2022-09-24T19:39:56.120Z,16.60
2022-09-24T19:42:26.674Z,15.80
2022-09-24T19:44:58.987Z,16.30
2022-09-24T19:47:28.733Z,17.00
2022-09-24T19:49:58.481Z,15.70
2022-09-24T19:52:28.207Z,15.80
2022-09-24T19:54:57.953Z,17.20
2022-09-24T19:57:27.982Z,15.77
2022-09-24T20:00:00.312Z,16.83
2022-09-24T20:02:30.142Z,15.13
2022-09-24T20:04:59.899Z,15.50
2022-09-24T20:07:29.619Z,15.77
2022-09-24T20:09:59.328Z,15.77
2022-09-24T20:12:29.580Z,15.73
2022-09-24T20:15:02.274Z,16.70
2022-09-24T20:17:33.981Z,15.87
2022-09-24T20:20:04.147Z,16.37
2022-09-24T20:22:35.004Z,14.97
2022-09-24T20:25:04.646Z,15.13
2022-09-24T20:27:47.502Z,16.10
2022-09-24T20:30:23.969Z,16.50
2022-09-24T20:32:54.650Z,15.73
2022-09-24T20:35:24.292Z,16.00
2022-09-24T20:37:53.992Z,15.00
2022-09-24T20:40:23.757Z,14.60
2022-09-24T20:42:53.498Z,14.63
2022-09-24T20:45:25.817Z,14.30
2022-09-24T20:47:55.554Z,16.30
2022-09-24T20:50:25.195Z,15.50
2022-09-24T20:52:54.975Z,15.40
2022-09-24T20:55:24.993Z,16.10
2022-09-24T20:57:54.888Z,16.47
2022-09-24T21:00:34.154Z,16.53
2022-09-24T21:03:20.015Z,18.00
2022-09-24T21:05:55.334Z,16.70
2022-09-24T21:08:24.997Z,17.10
2022-09-24T21:11:03.079Z,18.03
2022-09-24T21:13:33.845Z,18.50
2022-09-24T21:16:06.640Z,19.27
2022-09-24T21:18:40.647Z,19.37
2022-09-24T21:21:14.343Z,21.50
2022-09-24T21:23:45.756Z,21.57
2022-09-24T21:26:18.560Z,21.83
2022-09-24T21:28:49.616Z,21.50
2022-09-24T21:31:28.776Z,21.70
2022-09-24T21:33:59.179Z,21.20
2022-09-24T21:36:31.777Z,23.50
2022-09-24T21:39:03.692Z,25.80
2022-09-24T21:41:35.301Z,23.80
2022-09-24T21:44:05.995Z,25.80
2022-09-24T21:46:40.553Z,24.50
2022-09-24T21:49:10.442Z,24.47
2022-09-24T21:51:43.478Z,24.67
2022-09-24T21:54:17.585Z,26.57
2022-09-24T21:56:48.244Z,25.93
2022-09-24T21:59:32.076Z,25.90
2022-09-24T22:02:05.384Z,26.30
2022-09-24T22:04:37.221Z,25.00
2022-09-24T22:07:06.898Z,28.03
2022-09-24T22:09:36.766Z,27.80
2022-09-24T22:12:07.520Z,27.70
2022-09-24T22:14:38.183Z,28.30
2022-09-24T22:17:11.165Z,24.47
2022-09-24T22:19:41.044Z,24.50
2022-09-24T22:22:10.684Z,23.60
2022-09-24T22:24:40.411Z,21.17
2022-09-24T22:27:10.301Z,19.30
2022-09-24T22:29:41.057Z,19.47
2022-09-24T22:32:15.310Z,18.50
2022-09-24T22:34:58.501Z,18.87
2022-09-24T22:37:32.242Z,19.77
2022-09-24T22:40:02.330Z,18.60
2022-09-24T22:42:33.073Z,20.17
2022-09-24T22:45:06.554Z,22.63
2022-09-24T22:47:42.757Z,23.67
2022-09-24T22:50:12.999Z,21.60
2022-09-24T22:52:46.083Z,21.70
2022-09-24T22:55:15.777Z,21.20
2022-09-24T22:57:45.447Z,20.83
2022-09-24T23:00:18.950Z,21.13
2022-09-24T23:02:51.289Z,22.00
2022-09-24T23:05:22.157Z,21.60
2022-09-24T23:07:55.052Z,22.20
2022-09-24T23:10:30.138Z,21.73
2022-09-24T23:13:03.065Z,22.30
2022-09-24T23:15:36.065Z,21.97
2022-09-24T23:18:08.481Z,21.80
2022-09-24T23:20:38.141Z,20.67
2022-09-24T23:23:07.867Z,20.87
2022-09-24T23:25:38.633Z,20.80
2022-09-24T23:28:09.314Z,19.40
2022-09-24T23:30:39.094Z,20.07
2022-09-24T23:33:11.424Z,20.20
2022-09-24T23:35:41.121Z,20.57
2022-09-24T23:38:12.233Z,19.70
2022-09-24T23:40:42.033Z,19.83
2022-09-24T23:43:13.031Z,19.50
2022-09-24T23:45:42.818Z,19.83
2022-09-24T23:48:18.055Z,21.00
2022-09-24T23:50:47.915Z,21.53
2022-09-24T23:53:19.299Z,21.27
2022-09-24T23:55:50.175Z,20.90
2022-09-24T23:58:22.658Z,21.57
